sensor_id;sensor_type;location;lat;lon;timestamp;temperature;humidity
27266;DHT22;14766;51.380;13.762;2023-07-24T00:01:27;25.70;39.90
27266;DHT22;14766;51.380;13.762;2023-07-24T00:03:54;25.70;39.90
27266;DHT22;14766;51.380;13.762;2023-07-24T00:06:23;25.70;39.90
27266;DHT22;14766;51.380;13.762;2023-07-24T00:08:50;25.60;40.00
27266;DHT22;14766;51.380;13.762;2023-07-24T00:11:18;25.70;40.10
27266;DHT22;14766;51.380;13.762;2023-07-24T00:13:45;25.70;40.20
27266;DHT22;14766;51.380;13.762;2023-07-24T00:16:12;25.60;40.10
27266;DHT22;14766;51.380;13.762;2023-07-24T00:18:39;25.70;40.20
27266;DHT22;14766;51.380;13.762;2023-07-24T00:21:07;25.60;40.30
27266;DHT22;14766;51.380;13.762;2023-07-24T00:23:34;25.70;40.30
27266;DHT22;14766;51.380;13.762;2023-07-24T00:26:01;25.60;40.30
27266;DHT22;14766;51.380;13.762;2023-07-24T00:28:28;25.60;40.50
27266;DHT22;14766;51.380;13.762;2023-07-24T00:30:55;25.60;40.50
27266;DHT22;14766;51.380;13.762;2023-07-24T00:33:23;25.60;40.60
27266;DHT22;14766;51.380;13.762;2023-07-24T00:35:58;25.60;40.70
27266;DHT22;14766;51.380;13.762;2023-07-24T00:38:25;25.60;40.70
27266;DHT22;14766;51.380;13.762;2023-07-24T00:40:52;25.60;40.80
27266;DHT22;14766;51.380;13.762;2023-07-24T00:43:19;25.60;41.00
27266;DHT22;14766;51.380;13.762;2023-07-24T00:45:46;25.60;41.00
27266;DHT22;14766;51.380;13.762;2023-07-24T00:48:15;25.60;41.10
27266;DHT22;14766;51.380;13.762;2023-07-24T00:50:43;25.60;41.20
27266;DHT22;14766;51.380;13.762;2023-07-24T00:53:12;25.50;41.10
27266;DHT22;14766;51.380;13.762;2023-07-24T00:55:40;25.60;41.20
27266;DHT22;14766;51.380;13.762;2023-07-24T00:58:07;25.60;41.10
27266;DHT22;14766;51.380;13.762;2023-07-24T01:00:35;25.50;41.00
27266;DHT22;14766;51.380;13.762;2023-07-24T01:03:02;25.50;41.00
27266;DHT22;14766;51.380;13.762;2023-07-24T01:05:30;25.50;41.20
27266;DHT22;14766;51.380;13.762;2023-07-24T01:07:57;25.50;41.10
27266;DHT22;14766;51.380;13.762;2023-07-24T01:10:24;25.50;41.10
27266;DHT22;14766;51.380;13.762;2023-07-24T01:13:02;25.50;41.00
27266;DHT22;14766;51.380;13.762;2023-07-24T01:15:34;25.40;41.00
27266;DHT22;14766;51.380;13.762;2023-07-24T01:18:08;25.50;41.10
27266;DHT22;14766;51.380;13.762;2023-07-24T01:20:43;25.50;41.10
27266;DHT22;14766;51.380;13.762;2023-07-24T01:23:23;25.40;41.10
27266;DHT22;14766;51.380;13.762;2023-07-24T01:25:58;25.40;41.10
27266;DHT22;14766;51.380;13.762;2023-07-24T01:28:26;25.40;41.30
27266;DHT22;14766;51.380;13.762;2023-07-24T01:30:55;25.40;41.20
27266;DHT22;14766;51.380;13.762;2023-07-24T01:33:24;25.40;41.30
27266;DHT22;14766;51.380;13.762;2023-07-24T01:35:54;25.30;41.30
27266;DHT22;14766;51.380;13.762;2023-07-24T01:38:24;25.30;41.20
27266;DHT22;14766;51.380;13.762;2023-07-24T01:40:55;25.30;41.30
27266;DHT22;14766;51.380;13.762;2023-07-24T01:43:25;25.30;41.50
27266;DHT22;14766;51.380;13.762;2023-07-24T01:45:54;25.20;41.60
27266;DHT22;14766;51.380;13.762;2023-07-24T01:48:22;25.20;41.60
27266;DHT22;14766;51.380;13.762;2023-07-24T01:50:49;25.20;41.70
27266;DHT22;14766;51.380;13.762;2023-07-24T01:53:17;25.20;41.80
27266;DHT22;14766;51.380;13.762;2023-07-24T01:55:44;25.10;41.80
27266;DHT22;14766;51.380;13.762;2023-07-24T01:58:12;25.10;41.80
27266;DHT22;14766;51.380;13.762;2023-07-24T02:00:39;25.10;41.90
27266;DHT22;14766;51.380;13.762;2023-07-24T02:03:06;25.10;41.90
27266;DHT22;14766;51.380;13.762;2023-07-24T02:05:34;25.10;41.90
27266;DHT22;14766;51.380;13.762;2023-07-24T02:08:03;25.10;42.00
27266;DHT22;14766;51.380;13.762;2023-07-24T02:10:30;25.10;42.10
27266;DHT22;14766;51.380;13.762;2023-07-24T02:12:58;25.10;42.10
27266;DHT22;14766;51.380;13.762;2023-07-24T02:15:25;25.10;42.20
27266;DHT22;14766;51.380;13.762;2023-07-24T02:17:52;25.10;42.20
27266;DHT22;14766;51.380;13.762;2023-07-24T02:20:19;25.00;42.20
27266;DHT22;14766;51.380;13.762;2023-07-24T02:22:46;25.00;42.30
27266;DHT22;14766;51.380;13.762;2023-07-24T02:25:13;25.00;42.30
27266;DHT22;14766;51.380;13.762;2023-07-24T02:27:40;25.00;42.30
27266;DHT22;14766;51.380;13.762;2023-07-24T02:30:07;25.00;42.30
27266;DHT22;14766;51.380;13.762;2023-07-24T02:32:35;25.00;42.40
27266;DHT22;14766;51.380;13.762;2023-07-24T02:35:03;25.00;42.50
27266;DHT22;14766;51.380;13.762;2023-07-24T02:37:31;25.00;42.50
27266;DHT22;14766;51.380;13.762;2023-07-24T02:39:58;25.00;42.70
27266;DHT22;14766;51.380;13.762;2023-07-24T02:42:26;25.00;42.80
27266;DHT22;14766;51.380;13.762;2023-07-24T02:44:53;25.00;42.80
27266;DHT22;14766;51.380;13.762;2023-07-24T02:47:20;24.90;42.80
27266;DHT22;14766;51.380;13.762;2023-07-24T02:49:48;24.90;42.70
27266;DHT22;14766;51.380;13.762;2023-07-24T02:52:15;24.90;42.80
27266;DHT22;14766;51.380;13.762;2023-07-24T02:54:42;24.90;42.90
27266;DHT22;14766;51.380;13.762;2023-07-24T02:57:09;24.90;43.00
27266;DHT22;14766;51.380;13.762;2023-07-24T02:59:37;24.80;43.00
27266;DHT22;14766;51.380;13.762;2023-07-24T03:02:04;24.80;43.00
27266;DHT22;14766;51.380;13.762;2023-07-24T03:04:31;24.80;43.00
27266;DHT22;14766;51.380;13.762;2023-07-24T03:06:58;24.80;43.10
27266;DHT22;14766;51.380;13.762;2023-07-24T03:09:26;24.70;43.10
27266;DHT22;14766;51.380;13.762;2023-07-24T03:11:54;24.70;43.20
27266;DHT22;14766;51.380;13.762;2023-07-24T03:14:23;24.70;43.20
27266;DHT22;14766;51.380;13.762;2023-07-24T03:16:50;24.70;43.30
27266;DHT22;14766;51.380;13.762;2023-07-24T03:19:18;24.60;43.40
27266;DHT22;14766;51.380;13.762;2023-07-24T03:21:47;24.70;43.50
27266;DHT22;14766;51.380;13.762;2023-07-24T03:24:14;24.60;43.50
27266;DHT22;14766;51.380;13.762;2023-07-24T03:26:41;24.60;43.60
27266;DHT22;14766;51.380;13.762;2023-07-24T03:29:08;24.50;43.60
27266;DHT22;14766;51.380;13.762;2023-07-24T03:31:36;24.50;43.70
27266;DHT22;14766;51.380;13.762;2023-07-24T03:34:03;24.50;43.70
27266;DHT22;14766;51.380;13.762;2023-07-24T03:36:30;24.50;43.70
27266;DHT22;14766;51.380;13.762;2023-07-24T03:38:58;24.50;43.80
27266;DHT22;14766;51.380;13.762;2023-07-24T03:41:25;24.50;43.80
27266;DHT22;14766;51.380;13.762;2023-07-24T03:43:54;24.50;43.80
27266;DHT22;14766;51.380;13.762;2023-07-24T03:46:21;24.50;43.80
27266;DHT22;14766;51.380;13.762;2023-07-24T03:48:48;24.50;43.80
27266;DHT22;14766;51.380;13.762;2023-07-24T03:51:16;24.50;43.80
27266;DHT22;14766;51.380;13.762;2023-07-24T03:53:43;24.50;43.70
27266;DHT22;14766;51.380;13.762;2023-07-24T03:56:10;24.50;43.70
27266;DHT22;14766;51.380;13.762;2023-07-24T03:58:37;24.50;43.80
27266;DHT22;14766;51.380;13.762;2023-07-24T04:01:06;24.50;43.80
27266;DHT22;14766;51.380;13.762;2023-07-24T04:03:34;24.50;43.70
27266;DHT22;14766;51.380;13.762;2023-07-24T04:06:02;24.60;43.80
27266;DHT22;14766;51.380;13.762;2023-07-24T04:08:29;24.60;43.70
27266;DHT22;14766;51.380;13.762;2023-07-24T04:10:56;24.60;43.70
27266;DHT22;14766;51.380;13.762;2023-07-24T04:13:23;24.60;43.70
27266;DHT22;14766;51.380;13.762;2023-07-24T04:15:50;24.60;43.60
27266;DHT22;14766;51.380;13.762;2023-07-24T04:18:17;24.70;43.50
27266;DHT22;14766;51.380;13.762;2023-07-24T04:20:44;24.70;43.50
27266;DHT22;14766;51.380;13.762;2023-07-24T04:23:11;24.70;43.50
27266;DHT22;14766;51.380;13.762;2023-07-24T04:25:38;24.80;43.50
27266;DHT22;14766;51.380;13.762;2023-07-24T04:28:05;24.80;43.40
27266;DHT22;14766;51.380;13.762;2023-07-24T04:30:32;24.80;43.40
27266;DHT22;14766;51.380;13.762;2023-07-24T04:33:00;24.90;43.40
27266;DHT22;14766;51.380;13.762;2023-07-24T04:35:27;24.90;43.40
27266;DHT22;14766;51.380;13.762;2023-07-24T04:37:55;24.90;43.30
27266;DHT22;14766;51.380;13.762;2023-07-24T04:40:24;25.00;43.40
27266;DHT22;14766;51.380;13.762;2023-07-24T04:42:52;25.00;43.40
27266;DHT22;14766;51.380;13.762;2023-07-24T04:45:19;25.00;43.30
27266;DHT22;14766;51.380;13.762;2023-07-24T04:47:49;25.00;43.30
27266;DHT22;14766;51.380;13.762;2023-07-24T04:50:16;25.00;43.30
27266;DHT22;14766;51.380;13.762;2023-07-24T04:52:43;25.10;43.20
27266;DHT22;14766;51.380;13.762;2023-07-24T04:55:10;25.10;43.40
27266;DHT22;14766;51.380;13.762;2023-07-24T04:57:37;25.10;43.20
27266;DHT22;14766;51.380;13.762;2023-07-24T05:00:07;25.20;43.20
27266;DHT22;14766;51.380;13.762;2023-07-24T05:02:35;25.20;43.20
27266;DHT22;14766;51.380;13.762;2023-07-24T05:05:02;25.20;43.20
27266;DHT22;14766;51.380;13.762;2023-07-24T05:07:29;25.30;43.30
27266;DHT22;14766;51.380;13.762;2023-07-24T05:09:57;25.30;43.40
27266;DHT22;14766;51.380;13.762;2023-07-24T05:12:25;25.30;43.30
27266;DHT22;14766;51.380;13.762;2023-07-24T05:14:52;25.40;43.70
27266;DHT22;14766;51.380;13.762;2023-07-24T05:17:19;25.40;44.10
27266;DHT22;14766;51.380;13.762;2023-07-24T05:19:46;25.50;43.80
27266;DHT22;14766;51.380;13.762;2023-07-24T05:22:13;25.50;43.80
27266;DHT22;14766;51.380;13.762;2023-07-24T05:24:41;25.60;43.80
27266;DHT22;14766;51.380;13.762;2023-07-24T05:27:09;25.60;43.50
27266;DHT22;14766;51.380;13.762;2023-07-24T05:29:36;25.70;43.50
27266;DHT22;14766;51.380;13.762;2023-07-24T05:32:03;25.80;43.40
27266;DHT22;14766;51.380;13.762;2023-07-24T05:34:30;25.90;43.30
27266;DHT22;14766;51.380;13.762;2023-07-24T05:36:57;25.90;43.40
27266;DHT22;14766;51.380;13.762;2023-07-24T05:39:25;26.00;43.40
27266;DHT22;14766;51.380;13.762;2023-07-24T05:41:52;26.10;43.00
27266;DHT22;14766;51.380;13.762;2023-07-24T05:44:19;26.20;42.90
27266;DHT22;14766;51.380;13.762;2023-07-24T05:46:46;26.20;42.70
27266;DHT22;14766;51.380;13.762;2023-07-24T05:49:13;26.40;42.60
27266;DHT22;14766;51.380;13.762;2023-07-24T05:51:40;26.40;42.50
27266;DHT22;14766;51.380;13.762;2023-07-24T05:54:08;26.50;42.50
27266;DHT22;14766;51.380;13.762;2023-07-24T05:56:35;26.50;42.30
27266;DHT22;14766;51.380;13.762;2023-07-24T05:59:04;26.60;42.20
27266;DHT22;14766;51.380;13.762;2023-07-24T06:01:31;26.70;42.20
27266;DHT22;14766;51.380;13.762;2023-07-24T06:03:58;26.80;42.00
27266;DHT22;14766;51.380;13.762;2023-07-24T06:06:25;26.80;41.50
27266;DHT22;14766;51.380;13.762;2023-07-24T06:08:52;26.90;41.40
27266;DHT22;14766;51.380;13.762;2023-07-24T06:11:19;26.90;41.20
27266;DHT22;14766;51.380;13.762;2023-07-24T06:13:46;26.90;40.00
27266;DHT22;14766;51.380;13.762;2023-07-24T06:16:13;27.00;39.80
27266;DHT22;14766;51.380;13.762;2023-07-24T06:18:40;27.00;39.80
27266;DHT22;14766;51.380;13.762;2023-07-24T06:21:10;27.00;40.10
27266;DHT22;14766;51.380;13.762;2023-07-24T06:23:37;27.00;39.80
27266;DHT22;14766;51.380;13.762;2023-07-24T06:26:04;27.00;39.70
27266;DHT22;14766;51.380;13.762;2023-07-24T06:28:31;27.00;39.40
27266;DHT22;14766;51.380;13.762;2023-07-24T06:31:00;27.00;39.60
27266;DHT22;14766;51.380;13.762;2023-07-24T06:33:47;27.00;39.60
27266;DHT22;14766;51.380;13.762;2023-07-24T06:36:14;27.10;39.40
27266;DHT22;14766;51.380;13.762;2023-07-24T06:39:01;27.10;39.40
27266;DHT22;14766;51.380;13.762;2023-07-24T06:41:28;27.30;39.30
27266;DHT22;14766;51.380;13.762;2023-07-24T06:44:14;27.30;38.90
27266;DHT22;14766;51.380;13.762;2023-07-24T06:46:41;27.40;39.10
27266;DHT22;14766;51.380;13.762;2023-07-24T06:49:09;27.50;38.70
27266;DHT22;14766;51.380;13.762;2023-07-24T06:51:40;27.60;38.60
27266;DHT22;14766;51.380;13.762;2023-07-24T06:54:07;27.60;38.60
27266;DHT22;14766;51.380;13.762;2023-07-24T06:56:34;27.70;38.40
27266;DHT22;14766;51.380;13.762;2023-07-24T06:59:01;27.80;38.10
27266;DHT22;14766;51.380;13.762;2023-07-24T07:01:28;27.90;37.90
27266;DHT22;14766;51.380;13.762;2023-07-24T07:03:55;28.00;38.10
27266;DHT22;14766;51.380;13.762;2023-07-24T07:06:22;28.20;38.20
27266;DHT22;14766;51.380;13.762;2023-07-24T07:08:52;28.30;38.10
27266;DHT22;14766;51.380;13.762;2023-07-24T07:11:19;28.40;37.80
27266;DHT22;14766;51.380;13.762;2023-07-24T07:13:47;28.60;37.00
27266;DHT22;14766;51.380;13.762;2023-07-24T07:16:14;28.70;37.10
27266;DHT22;14766;51.380;13.762;2023-07-24T07:18:43;28.80;37.20
27266;DHT22;14766;51.380;13.762;2023-07-24T07:21:10;29.00;36.80
27266;DHT22;14766;51.380;13.762;2023-07-24T07:23:37;29.10;36.30
27266;DHT22;14766;51.380;13.762;2023-07-24T07:26:04;29.30;36.50
27266;DHT22;14766;51.380;13.762;2023-07-24T07:28:31;29.40;35.70
27266;DHT22;14766;51.380;13.762;2023-07-24T07:30:58;29.60;35.50
27266;DHT22;14766;51.380;13.762;2023-07-24T07:33:25;29.80;35.20
27266;DHT22;14766;51.380;13.762;2023-07-24T07:35:52;29.90;35.00
27266;DHT22;14766;51.380;13.762;2023-07-24T07:38:19;30.00;34.80
27266;DHT22;14766;51.380;13.762;2023-07-24T07:40:49;30.20;34.50
27266;DHT22;14766;51.380;13.762;2023-07-24T07:43:19;30.20;34.00
27266;DHT22;14766;51.380;13.762;2023-07-24T07:45:47;30.20;33.30
27266;DHT22;14766;51.380;13.762;2023-07-24T07:48:15;30.10;33.10
27266;DHT22;14766;51.380;13.762;2023-07-24T07:50:43;30.00;33.20
27266;DHT22;14766;51.380;13.762;2023-07-24T07:53:10;29.90;33.30
27266;DHT22;14766;51.380;13.762;2023-07-24T07:55:37;29.80;33.50
27266;DHT22;14766;51.380;13.762;2023-07-24T07:58:04;29.80;33.70
27266;DHT22;14766;51.380;13.762;2023-07-24T08:00:31;29.70;33.90
27266;DHT22;14766;51.380;13.762;2023-07-24T08:02:58;29.50;34.00
27266;DHT22;14766;51.380;13.762;2023-07-24T08:05:25;29.40;34.10
27266;DHT22;14766;51.380;13.762;2023-07-24T08:07:54;29.40;34.30
27266;DHT22;14766;51.380;13.762;2023-07-24T08:10:22;29.30;34.50
27266;DHT22;14766;51.380;13.762;2023-07-24T08:12:50;29.30;34.50
27266;DHT22;14766;51.380;13.762;2023-07-24T08:15:17;29.20;34.60
27266;DHT22;14766;51.380;13.762;2023-07-24T08:17:43;29.20;34.80
27266;DHT22;14766;51.380;13.762;2023-07-24T08:20:11;29.20;35.00
27266;DHT22;14766;51.380;13.762;2023-07-24T08:22:38;29.10;34.90
27266;DHT22;14766;51.380;13.762;2023-07-24T08:25:06;29.10;35.10
27266;DHT22;14766;51.380;13.762;2023-07-24T08:27:33;29.00;34.80
27266;DHT22;14766;51.380;13.762;2023-07-24T08:30:11;29.00;35.00
27266;DHT22;14766;51.380;13.762;2023-07-24T08:32:39;29.00;35.00
27266;DHT22;14766;51.380;13.762;2023-07-24T08:35:06;29.00;35.30
27266;DHT22;14766;51.380;13.762;2023-07-24T08:37:34;29.00;35.30
27266;DHT22;14766;51.380;13.762;2023-07-24T08:40:02;29.00;34.90
27266;DHT22;14766;51.380;13.762;2023-07-24T08:42:30;29.00;34.90
27266;DHT22;14766;51.380;13.762;2023-07-24T08:44:58;29.00;35.10
27266;DHT22;14766;51.380;13.762;2023-07-24T08:47:25;29.10;35.50
27266;DHT22;14766;51.380;13.762;2023-07-24T08:49:54;29.20;35.30
27266;DHT22;14766;51.380;13.762;2023-07-24T08:52:22;29.20;35.30
27266;DHT22;14766;51.380;13.762;2023-07-24T08:55:03;29.30;35.40
27266;DHT22;14766;51.380;13.762;2023-07-24T08:57:32;29.40;35.00
27266;DHT22;14766;51.380;13.762;2023-07-24T09:00:00;29.60;34.50
27266;DHT22;14766;51.380;13.762;2023-07-24T09:02:35;29.80;34.80
27266;DHT22;14766;51.380;13.762;2023-07-24T09:05:03;29.90;34.70
27266;DHT22;14766;51.380;13.762;2023-07-24T09:07:31;30.20;34.70
27266;DHT22;14766;51.380;13.762;2023-07-24T09:09:58;30.30;33.50
27266;DHT22;14766;51.380;13.762;2023-07-24T09:12:25;30.50;34.20
27266;DHT22;14766;51.380;13.762;2023-07-24T09:15:03;30.70;33.50
27266;DHT22;14766;51.380;13.762;2023-07-24T09:17:33;30.80;33.20
27266;DHT22;14766;51.380;13.762;2023-07-24T09:20:01;31.00;33.50
27266;DHT22;14766;51.380;13.762;2023-07-24T09:22:30;31.10;33.00
27266;DHT22;14766;51.380;13.762;2023-07-24T09:25:00;31.20;32.50
27266;DHT22;14766;51.380;13.762;2023-07-24T09:27:30;31.40;32.30
27266;DHT22;14766;51.380;13.762;2023-07-24T09:29:59;31.40;31.80
27266;DHT22;14766;51.380;13.762;2023-07-24T09:32:27;31.50;32.20
27266;DHT22;14766;51.380;13.762;2023-07-24T09:34:54;31.60;31.10
27266;DHT22;14766;51.380;13.762;2023-07-24T09:37:32;31.60;30.60
27266;DHT22;14766;51.380;13.762;2023-07-24T09:40:00;31.60;30.90
27266;DHT22;14766;51.380;13.762;2023-07-24T09:42:31;31.60;31.10
27266;DHT22;14766;51.380;13.762;2023-07-24T09:45:00;31.60;31.50
27266;DHT22;14766;51.380;13.762;2023-07-24T09:47:28;31.60;31.20
27266;DHT22;14766;51.380;13.762;2023-07-24T09:50:15;31.60;31.60
27266;DHT22;14766;51.380;13.762;2023-07-24T09:52:43;31.60;31.30
27266;DHT22;14766;51.380;13.762;2023-07-24T09:55:19;31.60;31.50
27266;DHT22;14766;51.380;13.762;2023-07-24T09:57:49;31.60;31.70
27266;DHT22;14766;51.380;13.762;2023-07-24T10:00:17;31.60;31.30
27266;DHT22;14766;51.380;13.762;2023-07-24T10:02:44;31.60;31.30
27266;DHT22;14766;51.380;13.762;2023-07-24T10:05:12;31.60;30.90
27266;DHT22;14766;51.380;13.762;2023-07-24T10:07:39;31.60;31.30
27266;DHT22;14766;51.380;13.762;2023-07-24T10:10:08;31.70;31.70
27266;DHT22;14766;51.380;13.762;2023-07-24T10:12:35;31.70;31.30
27266;DHT22;14766;51.380;13.762;2023-07-24T10:15:04;31.70;31.50
27266;DHT22;14766;51.380;13.762;2023-07-24T10:17:40;31.70;31.60
27266;DHT22;14766;51.380;13.762;2023-07-24T10:20:09;31.70;31.60
27266;DHT22;14766;51.380;13.762;2023-07-24T10:22:36;31.80;31.90
27266;DHT22;14766;51.380;13.762;2023-07-24T10:25:09;31.80;31.30
27266;DHT22;14766;51.380;13.762;2023-07-24T10:27:44;31.80;31.40
27266;DHT22;14766;51.380;13.762;2023-07-24T10:30:12;31.80;31.60
27266;DHT22;14766;51.380;13.762;2023-07-24T10:33:11;31.80;31.70
27266;DHT22;14766;51.380;13.762;2023-07-24T10:35:45;31.80;31.70
27266;DHT22;14766;51.380;13.762;2023-07-24T10:38:16;31.80;31.70
27266;DHT22;14766;51.380;13.762;2023-07-24T10:40:46;31.70;31.60
27266;DHT22;14766;51.380;13.762;2023-07-24T10:43:19;31.70;31.60
27266;DHT22;14766;51.380;13.762;2023-07-24T10:45:51;31.70;31.80
27266;DHT22;14766;51.380;13.762;2023-07-24T10:48:25;31.70;31.90
27266;DHT22;14766;51.380;13.762;2023-07-24T10:50:52;31.80;32.20
27266;DHT22;14766;51.380;13.762;2023-07-24T10:53:22;31.80;32.10
27266;DHT22;14766;51.380;13.762;2023-07-24T10:55:51;31.90;32.50
27266;DHT22;14766;51.380;13.762;2023-07-24T10:58:19;32.00;32.60
27266;DHT22;14766;51.380;13.762;2023-07-24T11:00:46;32.10;32.10
27266;DHT22;14766;51.380;13.762;2023-07-24T11:03:15;32.10;32.00
27266;DHT22;14766;51.380;13.762;2023-07-24T11:05:45;32.20;32.00
27266;DHT22;14766;51.380;13.762;2023-07-24T11:08:17;32.20;32.10
27266;DHT22;14766;51.380;13.762;2023-07-24T11:10:47;32.30;32.20
27266;DHT22;14766;51.380;13.762;2023-07-24T11:13:19;32.30;32.20
27266;DHT22;14766;51.380;13.762;2023-07-24T11:15:48;32.20;32.10
27266;DHT22;14766;51.380;13.762;2023-07-24T11:18:16;32.20;32.10
27266;DHT22;14766;51.380;13.762;2023-07-24T11:20:50;32.10;32.40
27266;DHT22;14766;51.380;13.762;2023-07-24T11:23:17;32.10;33.30
27266;DHT22;14766;51.380;13.762;2023-07-24T11:25:45;32.00;34.10
27266;DHT22;14766;51.380;13.762;2023-07-24T11:28:14;32.00;34.80
27266;DHT22;14766;51.380;13.762;2023-07-24T11:30:42;31.90;34.60
27266;DHT22;14766;51.380;13.762;2023-07-24T11:33:11;31.90;34.50
27266;DHT22;14766;51.380;13.762;2023-07-24T11:35:43;31.90;34.30
27266;DHT22;14766;51.380;13.762;2023-07-24T11:38:10;32.00;34.30
27266;DHT22;14766;51.380;13.762;2023-07-24T11:40:40;32.10;34.20
27266;DHT22;14766;51.380;13.762;2023-07-24T11:43:21;32.10;33.40
27266;DHT22;14766;51.380;13.762;2023-07-24T11:45:50;32.20;33.40
27266;DHT22;14766;51.380;13.762;2023-07-24T11:48:23;32.20;33.30
27266;DHT22;14766;51.380;13.762;2023-07-24T11:50:53;32.30;33.10
27266;DHT22;14766;51.380;13.762;2023-07-24T11:53:24;32.30;33.30
27266;DHT22;14766;51.380;13.762;2023-07-24T11:55:53;32.20;33.40
27266;DHT22;14766;51.380;13.762;2023-07-24T11:58:22;32.20;33.50
27266;DHT22;14766;51.380;13.762;2023-07-24T12:00:52;32.20;33.60
27266;DHT22;14766;51.380;13.762;2023-07-24T12:03:21;32.20;33.80
27266;DHT22;14766;51.380;13.762;2023-07-24T12:05:50;32.30;33.80
27266;DHT22;14766;51.380;13.762;2023-07-24T12:08:29;32.30;33.60
27266;DHT22;14766;51.380;13.762;2023-07-24T12:10:58;32.30;33.30
27266;DHT22;14766;51.380;13.762;2023-07-24T12:13:25;32.30;32.90
27266;DHT22;14766;51.380;13.762;2023-07-24T12:15:54;32.20;32.90
27266;DHT22;14766;51.380;13.762;2023-07-24T12:18:22;32.20;32.80
27266;DHT22;14766;51.380;13.762;2023-07-24T12:20:49;32.10;32.50
27266;DHT22;14766;51.380;13.762;2023-07-24T12:23:16;32.00;32.90
27266;DHT22;14766;51.380;13.762;2023-07-24T12:25:44;31.90;33.10
27266;DHT22;14766;51.380;13.762;2023-07-24T12:28:11;31.80;33.10
27266;DHT22;14766;51.380;13.762;2023-07-24T12:30:38;31.70;33.30
27266;DHT22;14766;51.380;13.762;2023-07-24T12:33:05;31.70;33.60
27266;DHT22;14766;51.380;13.762;2023-07-24T12:35:33;31.70;34.00
27266;DHT22;14766;51.380;13.762;2023-07-24T12:38:01;31.60;34.00
27266;DHT22;14766;51.380;13.762;2023-07-24T12:40:28;31.50;34.40
27266;DHT22;14766;51.380;13.762;2023-07-24T12:42:57;31.50;34.60
27266;DHT22;14766;51.380;13.762;2023-07-24T12:45:24;31.40;34.70
27266;DHT22;14766;51.380;13.762;2023-07-24T12:47:52;31.40;34.90
27266;DHT22;14766;51.380;13.762;2023-07-24T12:50:19;31.40;35.00
27266;DHT22;14766;51.380;13.762;2023-07-24T12:52:46;31.40;35.20
27266;DHT22;14766;51.380;13.762;2023-07-24T12:55:14;31.30;35.20
27266;DHT22;14766;51.380;13.762;2023-07-24T12:57:41;31.30;35.20
27266;DHT22;14766;51.380;13.762;2023-07-24T13:00:08;31.30;35.30
27266;DHT22;14766;51.380;13.762;2023-07-24T13:02:36;31.30;35.40
27266;DHT22;14766;51.380;13.762;2023-07-24T13:05:03;31.30;35.50
27266;DHT22;14766;51.380;13.762;2023-07-24T13:07:30;31.30;35.80
27266;DHT22;14766;51.380;13.762;2023-07-24T13:09:58;31.30;36.70
27266;DHT22;14766;51.380;13.762;2023-07-24T13:12:25;31.20;38.00
27266;DHT22;14766;51.380;13.762;2023-07-24T13:14:52;31.20;40.00
27266;DHT22;14766;51.380;13.762;2023-07-24T13:17:20;31.10;40.80
27266;DHT22;14766;51.380;13.762;2023-07-24T13:19:47;31.10;41.50
27266;DHT22;14766;51.380;13.762;2023-07-24T13:22:14;31.10;41.20
27266;DHT22;14766;51.380;13.762;2023-07-24T13:24:42;31.00;41.10
27266;DHT22;14766;51.380;13.762;2023-07-24T13:27:09;31.00;41.20
27266;DHT22;14766;51.380;13.762;2023-07-24T13:29:36;31.00;40.90
27266;DHT22;14766;51.380;13.762;2023-07-24T13:32:05;31.00;40.30
27266;DHT22;14766;51.380;13.762;2023-07-24T13:34:33;31.00;39.50
27266;DHT22;14766;51.380;13.762;2023-07-24T13:37:02;31.00;37.80
27266;DHT22;14766;51.380;13.762;2023-07-24T13:39:29;31.00;37.50
27266;DHT22;14766;51.380;13.762;2023-07-24T13:41:58;31.00;37.20
27266;DHT22;14766;51.380;13.762;2023-07-24T13:44:25;30.90;36.40
27266;DHT22;14766;51.380;13.762;2023-07-24T13:46:52;30.80;36.50
27266;DHT22;14766;51.380;13.762;2023-07-24T13:49:22;30.80;36.10
27266;DHT22;14766;51.380;13.762;2023-07-24T13:51:49;30.80;36.10
27266;DHT22;14766;51.380;13.762;2023-07-24T13:54:35;30.70;35.80
27266;DHT22;14766;51.380;13.762;2023-07-24T13:57:02;30.70;35.20
27266;DHT22;14766;51.380;13.762;2023-07-24T13:59:29;30.70;35.30
27266;DHT22;14766;51.380;13.762;2023-07-24T14:01:56;30.60;35.50
27266;DHT22;14766;51.380;13.762;2023-07-24T14:04:24;30.60;35.70
27266;DHT22;14766;51.380;13.762;2023-07-24T14:06:52;30.50;35.80
27266;DHT22;14766;51.380;13.762;2023-07-24T14:09:19;30.50;36.10
27266;DHT22;14766;51.380;13.762;2023-07-24T14:11:46;30.50;35.90
27266;DHT22;14766;51.380;13.762;2023-07-24T14:14:15;30.50;36.30
27266;DHT22;14766;51.380;13.762;2023-07-24T14:16:42;30.60;36.40
27266;DHT22;14766;51.380;13.762;2023-07-24T14:19:10;30.70;37.20
27266;DHT22;14766;51.380;13.762;2023-07-24T14:21:40;30.70;36.80
27266;DHT22;14766;51.380;13.762;2023-07-24T14:24:08;30.70;36.90
27266;DHT22;14766;51.380;13.762;2023-07-24T14:26:35;30.70;37.10
27266;DHT22;14766;51.380;13.762;2023-07-24T14:29:03;30.70;37.40
27266;DHT22;14766;51.380;13.762;2023-07-24T14:31:30;30.70;37.40
27266;DHT22;14766;51.380;13.762;2023-07-24T14:33:58;30.70;37.40
27266;DHT22;14766;51.380;13.762;2023-07-24T14:36:25;30.70;37.20
27266;DHT22;14766;51.380;13.762;2023-07-24T14:38:54;30.70;37.10
27266;DHT22;14766;51.380;13.762;2023-07-24T14:41:22;30.70;37.30
27266;DHT22;14766;51.380;13.762;2023-07-24T14:43:49;30.60;36.80
27266;DHT22;14766;51.380;13.762;2023-07-24T14:46:16;30.60;37.30
27266;DHT22;14766;51.380;13.762;2023-07-24T14:48:43;30.60;37.40
27266;DHT22;14766;51.380;13.762;2023-07-24T14:51:10;30.50;37.90
27266;DHT22;14766;51.380;13.762;2023-07-24T14:53:39;30.50;38.20
27266;DHT22;14766;51.380;13.762;2023-07-24T14:56:05;30.50;37.80
27266;DHT22;14766;51.380;13.762;2023-07-24T14:58:33;30.50;37.20
27266;DHT22;14766;51.380;13.762;2023-07-24T15:01:00;30.40;37.60
27266;DHT22;14766;51.380;13.762;2023-07-24T15:03:27;30.40;37.30
27266;DHT22;14766;51.380;13.762;2023-07-24T15:05:54;30.40;37.50
27266;DHT22;14766;51.380;13.762;2023-07-24T15:08:23;30.40;37.80
27266;DHT22;14766;51.380;13.762;2023-07-24T15:10:50;30.30;37.70
27266;DHT22;14766;51.380;13.762;2023-07-24T15:13:17;30.30;38.00
27266;DHT22;14766;51.380;13.762;2023-07-24T15:15:44;30.30;38.00
27266;DHT22;14766;51.380;13.762;2023-07-24T15:18:11;30.30;38.00
27266;DHT22;14766;51.380;13.762;2023-07-24T15:20:38;30.30;38.30
27266;DHT22;14766;51.380;13.762;2023-07-24T15:23:05;30.40;38.30